Time;durP1;ratioP1;P1;durP2;ratioP2;P2;SDS_P1;SDS_P2;PMS_P1;PMS_P2;Temp;Humidity;BMP_temperature;BMP_pressure;BME280_temperature;BME280_humidity;BME280_pressure;Samples;Min_cycle;Max_cycle;Signal;HPM_P1;HPM_P2
2022/04/08 00:02:13;;;;;;;2.47;1.67;;;5.20;99.90;;;;;;5065116;28;20106;-81
2022/04/08 00:04:39;;;;;;;5.30;1.38;;;5.20;99.90;;;;;;5050166;28;20044;-79
2022/04/08 00:07:05;;;;;;;1.13;0.98;;;5.20;99.90;;;;;;5050526;28;20043;-80
2022/04/08 00:09:30;;;;;;;1.25;0.90;;;5.10;99.90;;;;;;5072308;28;20041;-79
2022/04/08 00:11:57;;;;;;;0.77;0.77;;;5.10;99.90;;;;;;5044764;28;20173;-78
2022/04/08 00:14:23;;;;;;;0.90;0.90;;;5.00;99.90;;;;;;5066430;28;20115;-79
2022/04/08 00:16:55;;;;;;;0.80;0.80;;;5.00;99.90;;;;;;5071978;28;20101;-79
2022/04/08 00:19:21;;;;;;;1.92;1.35;;;5.00;99.90;;;;;;5033432;28;20049;-78
2022/04/08 00:21:48;;;;;;;1.20;1.10;;;5.00;99.90;;;;;;5033707;28;20102;-78
2022/04/08 00:24:17;;;;;;;0.70;0.70;;;5.00;99.90;;;;;;5063921;28;20051;-79
2022/04/08 00:26:45;;;;;;;2.25;0.95;;;4.90;99.90;;;;;;5073971;28;20033;-79
2022/04/08 00:29:14;;;;;;;0.73;0.73;;;4.70;99.90;;;;;;5072760;28;20094;-77
2022/04/08 00:31:40;;;;;;;1.50;0.90;;;4.30;99.90;;;;;;5047146;28;20076;-77
2022/04/08 00:34:06;;;;;;;2.72;0.60;;;4.20;99.90;;;;;;5048546;28;20390;-77
2022/04/08 00:36:32;;;;;;;1.65;0.93;;;4.30;99.90;;;;;;5049396;28;20343;-77
2022/04/08 00:38:57;;;;;;;0.60;0.60;;;4.00;99.90;;;;;;5030185;28;20047;-76
2022/04/08 00:41:25;;;;;;;2.72;0.80;;;3.90;99.90;;;;;;5055878;28;20051;-77
2022/04/08 00:43:50;;;;;;;0.85;0.65;;;3.90;99.90;;;;;;5022305;28;20131;-78
2022/04/08 00:46:16;;;;;;;1.30;0.82;;;3.90;99.90;;;;;;5031732;28;20144;-78
2022/04/08 00:48:42;;;;;;;4.00;0.85;;;3.90;99.90;;;;;;5077125;28;20040;-78
2022/04/08 00:51:09;;;;;;;1.13;1.08;;;4.10;99.90;;;;;;5060594;28;20454;-76
2022/04/08 00:53:40;;;;;;;2.33;1.60;;;4.00;99.90;;;;;;5062269;28;20037;-78
2022/04/08 00:56:06;;;;;;;2.13;1.50;;;4.00;99.90;;;;;;5041089;28;20165;-78
2022/04/08 00:58:34;;;;;;;0.80;0.80;;;4.20;99.90;;;;;;5059926;28;20049;-79
2022/04/08 01:01:01;;;;;;;1.95;1.02;;;4.20;99.90;;;;;;5060518;28;20049;-77
2022/04/08 01:03:27;;;;;;;2.78;1.10;;;4.00;99.90;;;;;;5041133;28;20048;-80
2022/04/08 01:05:54;;;;;;;1.00;1.00;;;4.00;99.90;;;;;;5038309;28;20466;-80
2022/04/08 01:08:21;;;;;;;2.17;0.93;;;3.90;99.90;;;;;;5067747;28;20174;-77
2022/04/08 01:10:49;;;;;;;2.70;1.50;;;3.90;99.90;;;;;;5033036;28;20037;-80
2022/04/08 01:13:14;;;;;;;2.88;1.58;;;3.80;99.90;;;;;;5044677;28;20097;-78
2022/04/08 01:15:40;;;;;;;6.45;2.03;;;3.80;99.90;;;;;;5046778;28;20049;-79
2022/04/08 01:18:08;;;;;;;1.27;1.17;;;3.80;99.90;;;;;;5047865;28;20060;-78
2022/04/08 01:20:35;;;;;;;2.25;1.45;;;3.70;99.90;;;;;;5058438;28;20101;-79
2022/04/08 01:23:03;;;;;;;1.13;1.05;;;3.80;99.90;;;;;;5045655;28;20044;-78
2022/04/08 01:25:29;;;;;;;1.50;1.30;;;3.70;99.90;;;;;;5041479;28;20040;-78
2022/04/08 01:27:55;;;;;;;6.72;1.50;;;3.70;99.90;;;;;;5042344;28;20501;-79
2022/04/08 01:30:21;;;;;;;;;;;3.70;99.90;;;;;;5046208;28;20037;-77
2022/04/08 01:32:47;;;;;;;0.93;0.93;;;3.70;99.90;;;;;;5048785;28;20372;-77
2022/04/08 01:35:13;;;;;;;1.75;0.90;;;3.80;99.90;;;;;;5052251;28;20037;-77
2022/04/08 01:37:39;;;;;;;7.70;1.40;;;4.00;99.90;;;;;;5034669;28;20040;-76
2022/04/08 01:40:05;;;;;;;1.13;1.02;;;3.80;99.90;;;;;;5040980;28;20071;-78
2022/04/08 01:42:31;;;;;;;4.28;2.00;;;3.80;99.90;;;;;;5025854;28;20047;-78
2022/04/08 01:44:56;;;;;;;0.60;0.60;;;3.80;99.90;;;;;;5073182;28;20127;-77
2022/04/08 01:47:23;;;;;;;0.75;0.75;;;3.80;99.90;;;;;;5026735;28;20045;-79
2022/04/08 01:49:48;;;;;;;4.80;1.40;;;3.90;99.90;;;;;;5054212;28;20128;-78
2022/04/08 01:52:15;;;;;;;0.88;0.88;;;3.90;99.90;;;;;;5061462;28;20128;-79
2022/04/08 01:54:41;;;;;;;1.58;1.17;;;4.00;99.90;;;;;;5038147;28;20063;-76
2022/04/08 01:57:07;;;;;;;1.40;1.10;;;4.00;99.90;;;;;;5052376;28;20104;-79
2022/04/08 01:59:33;;;;;;;1.23;1.20;;;4.00;99.90;;;;;;5068685;28;20041;-79
2022/04/08 02:01:59;;;;;;;7.43;1.35;;;4.00;99.90;;;;;;5067305;28;20048;-79
2022/04/08 02:04:26;;;;;;;1.20;1.10;;;3.90;99.90;;;;;;5058338;28;20312;-78
2022/04/08 02:06:52;;;;;;;2.15;2.05;;;4.00;99.90;;;;;;5046839;28;20094;-78
2022/04/08 02:09:18;;;;;;;3.72;1.45;;;4.00;99.90;;;;;;5059855;28;20043;-79
2022/04/08 02:11:45;;;;;;;0.90;0.90;;;4.00;99.90;;;;;;5022239;28;20036;-79
2022/04/08 02:14:11;;;;;;;0.93;0.93;;;3.90;99.90;;;;;;5035733;28;20036;-78
2022/04/08 02:16:36;;;;;;;3.63;1.27;;;3.90;99.90;;;;;;5047370;28;20095;-78
2022/04/08 02:19:02;;;;;;;1.77;1.67;;;3.90;99.90;;;;;;5070496;28;20128;-78
2022/04/08 02:21:28;;;;;;;2.28;1.65;;;3.90;99.90;;;;;;5033405;28;20186;-78
2022/04/08 02:23:54;;;;;;;0.77;0.73;;;3.90;99.90;;;;;;5072923;28;20043;-77
2022/04/08 02:26:20;;;;;;;2.25;1.25;;;4.00;99.90;;;;;;5055131;28;20087;-79
2022/04/08 02:28:46;;;;;;;1.20;1.10;;;4.00;99.90;;;;;;5066338;28;20064;-78
2022/04/08 02:31:13;;;;;;;0.95;0.85;;;4.10;99.90;;;;;;5051388;28;20557;-76
2022/04/08 02:33:40;;;;;;;7.05;2.05;;;4.20;99.90;;;;;;5050832;28;20132;-76
2022/04/08 02:36:07;;;;;;;7.35;1.77;;;4.20;99.90;;;;;;5051694;28;20458;-77
2022/04/08 02:38:33;;;;;;;2.20;1.02;;;4.20;99.90;;;;;;5056191;28;20530;-77
2022/04/08 02:41:00;;;;;;;2.72;1.48;;;4.30;99.90;;;;;;5035938;28;20032;-78
2022/04/08 02:43:26;;;;;;;3.88;1.23;;;4.30;99.90;;;;;;5066643;28;20036;-77
2022/04/08 02:45:51;;;;;;;1.60;1.08;;;4.20;99.90;;;;;;5068692;28;20063;-78
2022/04/08 02:48:18;;;;;;;0.70;0.70;;;4.30;99.90;;;;;;5064043;28;20082;-78
2022/04/08 02:50:44;;;;;;;0.60;0.60;;;4.00;99.90;;;;;;5049378;28;20056;-77
2022/04/08 02:53:10;;;;;;;5.22;1.95;;;4.10;99.90;;;;;;5043044;28;20162;-79
2022/04/08 02:55:36;;;;;;;0.60;0.60;;;4.00;99.90;;;;;;5060107;28;20115;-77
2022/04/08 02:58:03;;;;;;;5.20;1.30;;;4.30;99.90;;;;;;5014513;28;20082;-78
2022/04/08 03:00:29;;;;;;;0.68;0.68;;;4.20;99.90;;;;;;5063834;28;20036;-76
2022/04/08 03:02:55;;;;;;;;;;;3.60;99.90;;;;;;5030358;28;20120;-79
2022/04/08 03:05:21;;;;;;;0.60;0.60;;;3.60;99.90;;;;;;5053821;28;19946;-77
2022/04/08 03:07:47;;;;;;;0.77;0.77;;;3.50;99.90;;;;;;5016259;28;20056;-79
2022/04/08 03:10:13;;;;;;;1.00;0.85;;;3.40;99.90;;;;;;5053021;28;20036;-78
2022/04/08 03:12:39;;;;;;;0.95;0.95;;;3.40;99.90;;;;;;5048633;28;20097;-79
2022/04/08 03:15:06;;;;;;;3.03;0.90;;;3.30;99.90;;;;;;5060014;28;20060;-78
2022/04/08 03:17:34;;;;;;;0.80;0.80;;;3.30;99.90;;;;;;5058885;28;20350;-77
2022/04/08 03:19:59;;;;;;;1.73;1.10;;;3.30;99.90;;;;;;5043709;28;20044;-78
2022/04/08 03:22:25;;;;;;;0.85;0.85;;;3.30;99.90;;;;;;5061830;28;20039;-79
2022/04/08 03:24:51;;;;;;;0.98;0.77;;;3.30;99.90;;;;;;5045979;28;20045;-77
2022/04/08 03:27:17;;;;;;;;;;;3.30;99.90;;;;;;5051980;28;20409;-77
2022/04/08 03:29:44;;;;;;;1.08;0.98;;;3.40;99.90;;;;;;5056340;28;20416;-79
2022/04/08 03:32:11;;;;;;;1.17;0.80;;;3.40;99.90;;;;;;5064283;28;20041;-78
2022/04/08 03:34:38;;;;;;;0.80;0.80;;;3.40;99.90;;;;;;5080004;28;20481;-80
2022/04/08 03:37:05;;;;;;;2.17;1.98;;;3.50;99.90;;;;;;5066809;28;20040;-79
2022/04/08 03:39:31;;;;;;;1.45;1.00;;;3.60;99.90;;;;;;5067799;28;20049;-79
2022/04/08 03:41:57;;;;;;;;;;;3.80;99.90;;;;;;5047674;28;20037;-78
2022/04/08 03:44:23;;;;;;;0.77;0.77;;;3.90;99.90;;;;;;5044744;28;20389;-75
2022/04/08 03:46:49;;;;;;;10.27;1.33;;;3.90;99.90;;;;;;5062498;28;20127;-77
2022/04/08 03:49:16;;;;;;;1.35;1.10;;;3.80;99.90;;;;;;5049004;28;20463;-77
2022/04/08 03:51:43;;;;;;;2.60;1.42;;;4.00;99.90;;;;;;5051927;28;20958;-77
2022/04/08 03:54:08;;;;;;;3.22;1.10;;;4.00;99.90;;;;;;5047603;28;20060;-78
2022/04/08 03:56:35;;;;;;;1.23;1.13;;;3.80;99.90;;;;;;5070862;28;20422;-77
2022/04/08 03:59:01;;;;;;;3.08;0.98;;;3.90;99.90;;;;;;5036736;28;20073;-79
2022/04/08 04:01:27;;;;;;;2.83;1.60;;;3.80;99.90;;;;;;5049954;28;20096;-75
2022/04/08 04:03:52;;;;;;;6.10;1.48;;;3.80;99.90;;;;;;5060575;28;20389;-78
2022/04/08 04:06:18;;;;;;;0.75;0.75;;;3.90;99.90;;;;;;5058686;28;20043;-77
2022/04/08 04:08:44;;;;;;;2.33;1.23;;;4.10;99.90;;;;;;5075207;28;20044;-78
2022/04/08 04:11:14;;;;;;;;;;;3.90;99.90;;;;;;5071248;28;20181;-80
2022/04/08 04:13:41;;;;;;;3.47;0.90;;;3.60;99.90;;;;;;5055122;28;20297;-77
2022/04/08 04:16:08;;;;;;;3.72;1.63;;;3.50;99.90;;;;;;5060128;28;20048;-78
2022/04/08 04:18:34;;;;;;;1.75;1.30;;;3.20;99.90;;;;;;5053687;28;20130;-77
2022/04/08 04:20:59;;;;;;;0.85;0.82;;;3.10;99.90;;;;;;5053495;28;20505;-76
2022/04/08 04:23:25;;;;;;;0.77;0.77;;;3.00;99.90;;;;;;5046480;28;20039;-78
2022/04/08 04:25:51;;;;;;;2.58;1.30;;;3.00;99.90;;;;;;5057582;28;20061;-77
2022/04/08 04:28:17;;;;;;;3.90;1.85;;;3.00;99.90;;;;;;5063093;28;20036;-79
2022/04/08 04:30:42;;;;;;;3.40;1.05;;;2.90;99.90;;;;;;5039628;28;20390;-79
2022/04/08 04:33:08;;;;;;;1.50;1.25;;;2.90;99.90;;;;;;5069269;28;20584;-77
2022/04/08 04:35:38;;;;;;;10.43;1.30;;;3.00;99.90;;;;;;5051264;28;20054;-78
2022/04/08 04:38:05;;;;;;;1.60;1.23;;;2.90;99.90;;;;;;5046912;28;20478;-76
2022/04/08 04:40:31;;;;;;;1.30;1.20;;;2.90;99.90;;;;;;5067971;28;20037;-77
2022/04/08 04:42:56;;;;;;;;;;;3.00;99.90;;;;;;5064597;28;21912;-76
2022/04/08 04:45:23;;;;;;;2.70;1.40;;;3.00;99.90;;;;;;5051622;28;19946;-76
2022/04/08 04:47:48;;;;;;;1.40;1.00;;;3.00;99.90;;;;;;5062625;28;20483;-78
2022/04/08 04:50:17;;;;;;;1.02;0.90;;;3.00;99.90;;;;;;5048069;28;20072;-78
2022/04/08 04:52:42;;;;;;;2.28;1.48;;;3.10;99.90;;;;;;5047671;28;20037;-79
2022/04/08 04:55:09;;;;;;;1.10;1.00;;;3.20;99.90;;;;;;5070280;28;20053;-78
2022/04/08 04:57:41;;;;;;;0.73;0.73;;;3.20;99.90;;;;;;5036988;28;20551;-80
2022/04/08 05:00:09;;;;;;;2.88;1.80;;;3.30;99.90;;;;;;5068626;28;20068;-76
2022/04/08 05:02:41;;;;;;;0.95;0.95;;;3.30;99.90;;;;;;5053575;28;20112;-77
2022/04/08 05:05:07;;;;;;;0.70;0.70;;;3.30;99.90;;;;;;5038062;28;20118;-76
2022/04/08 05:07:32;;;;;;;;;;;3.30;99.90;;;;;;5076336;28;20050;-79
2022/04/08 05:09:58;;;;;;;1.08;1.05;;;3.30;99.90;;;;;;5063467;28;19917;-77
2022/04/08 05:12:24;;;;;;;1.38;1.20;;;3.30;99.90;;;;;;5071075;28;20500;-78
2022/04/08 05:14:49;;;;;;;1.45;1.35;;;3.30;99.90;;;;;;5046703;28;20178;-77
2022/04/08 05:17:15;;;;;;;1.55;1.45;;;3.60;99.90;;;;;;5073861;28;20049;-77
2022/04/08 05:19:42;;;;;;;5.20;1.27;;;3.30;99.90;;;;;;5052688;28;20036;-78
2022/04/08 05:22:07;;;;;;;0.98;0.95;;;3.20;99.90;;;;;;5051942;28;20405;-78
2022/04/08 05:24:33;;;;;;;2.25;1.23;;;3.10;99.90;;;;;;5051537;28;20036;-77
2022/04/08 05:26:59;;;;;;;5.65;1.70;;;3.10;99.90;;;;;;5068884;28;20439;-77
2022/04/08 05:29:25;;;;;;;2.85;1.63;;;3.10;99.90;;;;;;5052763;28;20048;-80
2022/04/08 05:31:52;;;;;;;0.80;0.80;;;3.00;99.90;;;;;;5072218;28;20043;-78
2022/04/08 05:34:19;;;;;;;0.80;0.80;;;3.10;99.90;;;;;;5053135;28;20044;-77
2022/04/08 05:36:44;;;;;;;1.85;1.30;;;3.00;99.90;;;;;;5064889;28;20516;-77
2022/04/08 05:39:10;;;;;;;1.52;1.25;;;3.10;99.90;;;;;;5066481;28;20049;-77
2022/04/08 05:41:38;;;;;;;1.20;0.90;;;3.50;99.90;;;;;;5049667;28;20048;-76
2022/04/08 05:44:04;;;;;;;1.45;1.25;;;3.50;99.90;;;;;;5064433;28;20076;-78
2022/04/08 05:46:30;;;;;;;0.65;0.65;;;3.40;99.90;;;;;;5071041;28;20168;-77
2022/04/08 05:48:56;;;;;;;3.65;1.58;;;3.50;99.90;;;;;;5044782;28;20044;-75
2022/04/08 05:51:21;;;;;;;4.40;1.30;;;3.50;99.90;;;;;;5068344;28;20116;-76
2022/04/08 05:53:47;;;;;;;;;;;3.50;99.90;;;;;;5050793;28;20053;-77
2022/04/08 05:56:13;;;;;;;4.00;1.10;;;3.60;99.90;;;;;;5067203;28;21392;-76
2022/04/08 05:58:39;;;;;;;2.05;1.35;;;3.60;99.90;;;;;;5070857;28;20044;-78
2022/04/08 06:01:05;;;;;;;0.88;0.88;;;3.60;99.90;;;;;;5069631;28;20056;-78
2022/04/08 06:03:31;;;;;;;4.55;1.63;;;3.60;99.90;;;;;;5047223;28;20033;-79
2022/04/08 06:05:57;;;;;;;3.65;1.45;;;3.60;99.90;;;;;;5062149;28;20041;-81
2022/04/08 06:08:22;;;;;;;2.15;1.30;;;4.70;99.90;;;;;;5055695;28;20129;-77
2022/04/08 06:10:48;;;;;;;0.95;0.93;;;3.60;99.90;;;;;;5032908;28;20059;-80
2022/04/08 06:13:15;;;;;;;;;;;3.70;99.90;;;;;;5055045;28;20058;-79
2022/04/08 06:15:40;;;;;;;2.05;1.33;;;3.70;99.90;;;;;;5080359;28;19981;-82
2022/04/08 06:18:10;;;;;;;2.17;1.52;;;3.80;99.90;;;;;;5072193;28;20133;-80
2022/04/08 06:20:36;;;;;;;1.15;1.05;;;4.30;99.90;;;;;;5074167;28;20146;-82
2022/04/08 06:23:01;;;;;;;1.27;1.08;;;4.00;99.90;;;;;;5058787;28;21145;-81
2022/04/08 06:25:27;;;;;;;1.30;1.20;;;4.00;99.90;;;;;;5040681;28;20042;-80
2022/04/08 06:27:58;;;;;;;0.98;0.90;;;4.00;99.90;;;;;;5046566;28;20379;-82
2022/04/08 06:30:24;;;;;;;1.83;1.27;;;4.10;99.90;;;;;;5047896;28;20036;-79
2022/04/08 06:32:50;;;;;;;1.42;1.25;;;4.10;99.90;;;;;;5054611;28;20044;-81
2022/04/08 06:35:16;;;;;;;0.95;0.90;;;4.20;99.90;;;;;;5054182;28;20040;-80
2022/04/08 06:37:42;;;;;;;2.10;1.42;;;4.20;99.90;;;;;;5053439;28;20454;-77
2022/04/08 06:40:09;;;;;;;1.55;1.27;;;4.30;99.90;;;;;;5056008;28;20051;-81
2022/04/08 06:42:36;;;;;;;4.18;1.05;;;4.40;99.90;;;;;;5054036;28;20043;-78
2022/04/08 06:45:04;;;;;;;10.18;1.52;;;4.40;99.90;;;;;;5036759;28;20047;-80
2022/04/08 06:47:30;;;;;;;4.78;1.90;;;4.50;99.90;;;;;;5049990;28;20386;-81
2022/04/08 06:49:55;;;;;;;0.80;0.80;;;4.60;99.90;;;;;;5034094;28;20048;-78
2022/04/08 06:52:21;;;;;;;2.53;1.35;;;6.10;99.90;;;;;;5063957;28;20040;-79
2022/04/08 06:54:47;;;;;;;5.57;1.08;;;5.40;99.90;;;;;;5029900;28;20036;-78
2022/04/08 06:57:13;;;;;;;2.92;1.35;;;4.80;99.90;;;;;;5049481;28;20041;-78
2022/04/08 06:59:41;;;;;;;2.63;1.65;;;5.30;99.90;;;;;;5043214;28;20052;-79
2022/04/08 07:02:08;;;;;;;2.42;1.17;;;5.00;99.90;;;;;;5055333;28;20051;-81
2022/04/08 07:04:36;;;;;;;2.33;1.58;;;5.30;99.90;;;;;;5052200;28;20102;-80
2022/04/08 07:07:04;;;;;;;3.50;1.42;;;5.10;99.90;;;;;;5054483;28;20041;-78
2022/04/08 07:09:32;;;;;;;11.85;1.73;;;5.10;99.90;;;;;;5030491;28;20048;-81
2022/04/08 07:12:00;;;;;;;6.10;1.45;;;5.20;99.90;;;;;;5052674;28;20471;-79
2022/04/08 07:14:29;;;;;;;0.85;0.85;;;5.30;99.90;;;;;;5045616;28;20123;-82
2022/04/08 07:16:55;;;;;;;1.45;1.20;;;5.30;99.90;;;;;;5064103;28;20699;-83
2022/04/08 07:19:23;;;;;;;1.98;1.42;;;5.40;99.90;;;;;;5049172;28;20048;-80
2022/04/08 07:21:55;;;;;;;1.80;1.35;;;5.60;99.90;;;;;;5052747;28;20068;-85
2022/04/08 07:24:22;;;;;;;3.13;1.27;;;;;;;;;;5055885;28;20047;-81
2022/04/08 07:26:50;;;;;;;;;;;5.70;99.90;;;;;;5054298;28;20075;-81
2022/04/08 07:29:16;;;;;;;1.80;1.58;;;5.90;99.90;;;;;;5069076;28;19948;-80
2022/04/08 07:31:42;;;;;;;6.47;2.10;;;5.90;99.90;;;;;;5033130;28;20036;-80
2022/04/08 07:34:08;;;;;;;7.55;1.17;;;6.10;99.90;;;;;;5060914;28;20231;-81
2022/04/08 07:36:34;;;;;;;2.50;1.45;;;6.10;99.90;;;;;;5032259;28;20047;-80
2022/04/08 07:39:03;;;;;;;1.80;1.50;;;6.20;99.90;;;;;;5069124;28;21445;-84
2022/04/08 07:41:39;;;;;;;2.15;1.27;;;6.30;99.90;;;;;;5070085;28;20051;-82
2022/04/08 07:44:05;;;;;;;8.35;1.60;;;6.40;99.90;;;;;;5055707;28;20078;-83
2022/04/08 07:46:31;;;;;;;1.30;1.20;;;6.40;99.90;;;;;;5036652;28;20510;-81
2022/04/08 07:48:57;;;;;;;1.48;1.27;;;6.50;99.90;;;;;;5052708;28;20040;-80
2022/04/08 07:51:23;;;;;;;2.20;1.33;;;6.50;99.90;;;;;;5012355;28;20037;-80
2022/04/08 07:53:55;;;;;;;4.47;1.30;;;6.10;99.90;;;;;;5079441;28;20037;-81
2022/04/08 07:56:33;;;;;;;;;;;;;;;;;;;;;
2022/04/08 07:58:59;;;;;;;1.05;0.73;;;6.20;99.90;;;;;;5056895;28;20049;-81
2022/04/08 08:01:27;;;;;;;4.80;1.25;;;6.20;99.90;;;;;;5045851;28;20055;-79
2022/04/08 08:04:13;;;;;;;1.45;1.08;;;6.10;99.90;;;;;;5043783;28;20036;-81
2022/04/08 08:06:49;;;;;;;1.95;1.75;;;6.20;99.90;;;;;;5057136;28;20059;-82
2022/04/08 08:09:14;;;;;;;2.03;1.48;;;6.30;99.90;;;;;;5048088;28;20120;-83
2022/04/08 08:11:40;;;;;;;1.20;0.95;;;6.40;99.90;;;;;;5050791;28;20068;-84
2022/04/08 08:14:06;;;;;;;3.30;1.60;;;7.70;99.90;;;;;;5069606;28;20039;-82
2022/04/08 08:16:32;;;;;;;1.35;0.98;;;6.60;99.90;;;;;;5030215;28;20036;-82
2022/04/08 08:18:58;;;;;;;1.42;1.23;;;6.80;99.90;;;;;;5030032;28;20436;-82
2022/04/08 08:21:24;;;;;;;1.48;1.15;;;7.50;99.90;;;;;;5071092;28;20105;-81
2022/04/08 08:23:50;;;;;;;;;;;7.00;99.90;;;;;;5072871;28;20070;-79
2022/04/08 08:26:16;;;;;;;1.38;0.85;;;7.20;99.90;;;;;;5069698;28;19920;-83
2022/04/08 08:28:41;;;;;;;3.30;1.20;;;7.30;99.90;;;;;;5053035;28;20160;-79
2022/04/08 08:31:07;;;;;;;1.92;1.42;;;7.60;99.90;;;;;;5043658;28;20431;-82
2022/04/08 08:33:33;;;;;;;0.70;0.70;;;7.80;99.90;;;;;;5053679;28;20494;-79
2022/04/08 08:35:59;;;;;;;2.10;1.08;;;7.90;99.90;;;;;;5060536;28;20028;-82
2022/04/08 08:38:24;;;;;;;0.60;0.60;;;7.90;99.90;;;;;;5070263;28;20041;-85
2022/04/08 08:40:51;;;;;;;0.93;0.70;;;7.90;99.90;;;;;;5040519;28;20131;-80
2022/04/08 08:43:18;;;;;;;0.70;0.70;;;7.80;99.90;;;;;;5050934;28;20033;-82
2022/04/08 08:45:47;;;;;;;0.90;0.90;;;7.80;99.90;;;;;;5068417;28;20107;-83
2022/04/08 08:48:15;;;;;;;1.90;1.15;;;7.90;99.90;;;;;;5072438;28;20048;-81
2022/04/08 08:50:47;;;;;;;2.25;1.02;;;8.00;99.90;;;;;;5055837;28;20041;-81
2022/04/08 08:53:18;;;;;;;1.75;1.13;;;7.80;99.90;;;;;;5039770;28;20126;-85
2022/04/08 08:55:44;;;;;;;0.57;0.57;;;7.70;99.90;;;;;;5065253;28;20040;-87
2022/04/08 08:58:10;;;;;;;1.10;0.98;;;7.70;99.90;;;;;;5051964;28;20044;-84
2022/04/08 09:00:36;;;;;;;2.38;1.38;;;7.90;99.90;;;;;;5048039;28;20048;-83
2022/04/08 09:03:03;;;;;;;0.85;0.85;;;8.20;99.90;;;;;;5071911;28;20044;-82
2022/04/08 09:05:29;;;;;;;1.75;0.88;;;8.40;99.90;;;;;;5070634;28;20361;-85
2022/04/08 09:07:59;;;;;;;;;;;8.50;99.90;;;;;;5076808;28;20131;-82
2022/04/08 09:10:32;;;;;;;0.70;0.70;;;8.50;99.90;;;;;;5058065;28;20273;-82
2022/04/08 09:13:00;;;;;;;1.75;1.02;;;8.20;99.90;;;;;;5059653;28;20037;-86
2022/04/08 09:15:26;;;;;;;0.50;0.50;;;7.80;99.90;;;;;;5049419;28;20043;-81
2022/04/08 09:17:52;;;;;;;3.03;1.08;;;7.40;99.90;;;;;;5053435;28;20060;-80
2022/04/08 09:20:19;;;;;;;2.22;1.23;;;7.00;99.90;;;;;;5059284;28;20504;-80
2022/04/08 09:22:55;;;;;;;0.73;0.73;;;6.80;99.90;;;;;;5084520;28;20106;-85
2022/04/08 09:25:24;;;;;;;0.85;0.75;;;6.80;99.90;;;;;;5061752;28;20557;-83
2022/04/08 09:27:50;;;;;;;1.92;1.00;;;7.10;99.90;;;;;;5056707;28;20514;-83
2022/04/08 09:30:20;;;;;;;1.20;0.85;;;7.30;99.90;;;;;;5074406;28;20123;-81
2022/04/08 09:32:46;;;;;;;1.20;1.13;;;7.40;99.90;;;;;;5056759;28;20139;-82
2022/04/08 09:35:18;;;;;;;1.48;1.02;;;7.40;99.90;;;;;;5059951;28;20123;-80
2022/04/08 09:37:59;;;;;;;1.27;1.08;;;7.50;99.90;;;;;;5038024;28;20045;-79
2022/04/08 09:40:25;;;;;;;2.05;1.10;;;7.50;99.90;;;;;;5074010;28;20498;-84
2022/04/08 09:42:51;;;;;;;1.00;0.90;;;7.40;99.90;;;;;;5038660;28;20040;-85
2022/04/08 09:45:30;;;;;;;0.60;0.60;;;7.40;99.90;;;;;;5062591;28;20474;-80
2022/04/08 09:47:59;;;;;;;1.50;0.82;;;7.40;99.90;;;;;;5051034;28;20135;-82
2022/04/08 09:50:26;;;;;;;0.60;0.60;;;7.50;99.90;;;;;;5041766;28;20101;-80
2022/04/08 09:52:52;;;;;;;0.88;0.88;;;7.50;99.90;;;;;;5056215;28;20044;-81
2022/04/08 09:55:19;;;;;;;3.58;1.08;;;7.50;99.90;;;;;;5073850;28;20040;-83
2022/04/08 09:57:47;;;;;;;1.02;0.68;;;7.70;99.90;;;;;;5059321;28;20097;-85
2022/04/08 10:00:14;;;;;;;0.55;0.55;;;7.90;99.90;;;;;;5054095;28;20426;-82
2022/04/08 10:02:44;;;;;;;2.08;1.38;;;8.20;99.90;;;;;;5073956;28;20082;-82
2022/04/08 10:05:13;;;;;;;0.80;0.80;;;8.60;99.90;;;;;;5051806;28;20044;-79
2022/04/08 10:07:40;;;;;;;0.85;0.80;;;8.90;99.90;;;;;;5041736;28;20044;-81
2022/04/08 10:10:25;;;;;;;8.75;1.35;;;9.10;99.90;;;;;;5038059;28;20058;-79
2022/04/08 10:13:04;;;;;;;1.88;1.33;;;9.00;99.90;;;;;;5072944;28;20048;-81
2022/04/08 10:15:50;;;;;;;0.93;0.73;;;8.70;99.90;;;;;;5074859;28;20100;-82
2022/04/08 10:18:36;;;;;;;1.40;1.02;;;8.30;99.90;;;;;;5073026;28;20059;-80
2022/04/08 10:21:03;;;;;;;0.70;0.70;;;7.90;99.90;;;;;;5074496;28;20133;-83
2022/04/08 10:23:50;;;;;;;0.52;0.52;;;7.60;99.90;;;;;;5056525;28;20079;-83
2022/04/08 10:26:25;;;;;;;0.60;0.60;;;7.60;99.90;;;;;;5057362;28;20051;-83
2022/04/08 10:28:53;;;;;;;1.77;1.00;;;7.60;99.90;;;;;;5083693;28;20128;-81
2022/04/08 10:31:22;;;;;;;0.60;0.60;;;7.90;99.90;;;;;;5056028;28;20052;-81
2022/04/08 10:33:57;;;;;;;4.53;1.05;;;8.10;99.90;;;;;;5062355;28;20506;-82
2022/04/08 10:36:37;;;;;;;4.15;1.10;;;8.40;99.90;;;;;;5054405;28;20041;-82
2022/04/08 10:39:12;;;;;;;1.25;0.60;;;8.40;99.90;;;;;;5072307;28;20091;-80
2022/04/08 10:41:48;;;;;;;1.70;0.90;;;8.50;99.90;;;;;;5073097;28;20051;-83
2022/04/08 10:44:39;;;;;;;0.68;0.68;;;8.50;99.90;;;;;;5073145;28;20093;-80
2022/04/08 10:47:15;;;;;;;2.47;1.85;;;8.50;99.90;;;;;;5058637;28;20480;-83
2022/04/08 10:49:52;;;;;;;2.80;0.98;;;8.10;99.90;;;;;;5067435;28;20052;-87
2022/04/08 10:52:22;;;;;;;0.60;0.60;;;7.10;99.90;;;;;;5085317;28;20089;-83
2022/04/08 10:55:03;;;;;;;1.25;0.98;;;6.20;99.90;;;;;;5061483;28;20600;-81
2022/04/08 10:57:36;;;;;;;0.50;0.50;;;5.70;99.90;;;;;;5072921;28;20119;-83
2022/04/08 11:00:08;;;;;;;1.42;0.47;;;5.50;99.90;;;;;;5057441;28;20040;-81
2022/04/08 11:02:35;;;;;;;3.22;1.13;;;5.60;99.90;;;;;;5080547;28;20504;-81
2022/04/08 11:05:05;;;;;;;1.20;1.10;;;5.90;99.90;;;;;;5065894;28;20377;-87
2022/04/08 11:07:32;;;;;;;0.60;0.60;;;6.20;99.90;;;;;;5062041;28;20094;-85
2022/04/08 11:09:58;;;;;;;2.05;1.20;;;6.50;99.90;;;;;;5050223;28;20048;-83
2022/04/08 11:12:25;;;;;;;1.08;1.00;;;6.90;99.90;;;;;;5075041;28;20043;-85
2022/04/08 11:14:58;;;;;;;1.10;1.00;;;7.20;99.90;;;;;;5029752;28;20048;-84
2022/04/08 11:17:34;;;;;;;0.90;0.90;;;7.60;99.90;;;;;;5051098;28;20056;-83
2022/04/08 11:20:02;;;;;;;1.33;0.90;;;8.10;99.90;;;;;;5072179;28;20489;-82
2022/04/08 11:22:38;;;;;;;2.38;0.98;;;8.50;99.90;;;;;;5075377;28;20486;-82
2022/04/08 11:25:18;;;;;;;3.85;1.40;;;8.90;99.90;;;;;;5066754;28;20124;-79
2022/04/08 11:27:44;;;;;;;2.78;0.80;;;9.20;99.90;;;;;;5047599;28;20036;-80
2022/04/08 11:30:10;;;;;;;1.98;1.33;;;9.10;99.90;;;;;;5048492;28;20063;-80
2022/04/08 11:32:39;;;;;;;1.40;1.08;;;8.80;99.90;;;;;;5053740;28;20127;-81
2022/04/08 11:35:12;;;;;;;1.42;0.90;;;8.60;99.90;;;;;;5070246;28;20069;-81
2022/04/08 11:37:38;;;;;;;3.60;1.00;;;8.70;99.90;;;;;;5069789;28;20067;-79
2022/04/08 11:40:04;;;;;;;0.70;0.70;;;8.70;99.90;;;;;;5043431;28;20490;-82
2022/04/08 11:42:30;;;;;;;1.05;0.95;;;8.80;99.90;;;;;;5044155;28;20206;-82
2022/04/08 11:44:57;;;;;;;0.90;0.80;;;8.90;99.90;;;;;;5053555;28;20409;-81
2022/04/08 11:47:31;;;;;;;1.48;1.00;;;9.00;99.90;;;;;;5034208;28;20044;-81
2022/04/08 11:50:06;;;;;;;2.20;0.85;;;9.00;99.90;;;;;;5051383;28;20045;-81
2022/04/08 11:52:32;;;;;;;1.00;0.85;;;9.20;99.90;;;;;;5047562;28;20040;-81
2022/04/08 11:55:05;;;;;;;;;;;9.30;99.90;;;;;;5062558;28;20068;-80
2022/04/08 11:57:33;;;;;;;0.98;0.90;;;9.60;99.90;;;;;;5066096;28;19966;-82
2022/04/08 12:00:08;;;;;;;1.20;0.90;;;9.90;99.90;;;;;;5060405;28;20108;-83
2022/04/08 12:02:35;;;;;;;3.65;0.70;;;10.00;99.90;;;;;;5060513;28;20385;-82
2022/04/08 12:05:02;;;;;;;2.10;1.10;;;9.80;99.90;;;;;;5054256;28;20057;-80
2022/04/08 12:07:30;;;;;;;;;;;9.70;99.90;;;;;;5062327;28;20055;-82
2022/04/08 12:09:58;;;;;;;4.18;1.38;;;9.80;99.90;;;;;;5054749;28;19956;-81
2022/04/08 12:12:27;;;;;;;0.95;0.85;;;9.60;99.90;;;;;;5074755;28;20115;-80
2022/04/08 12:14:53;;;;;;;4.65;1.33;;;9.60;99.90;;;;;;5068723;28;20068;-83
2022/04/08 12:17:19;;;;;;;4.03;1.23;;;9.70;99.90;;;;;;5039384;28;20067;-84
2022/04/08 12:19:53;;;;;;;2.80;1.02;;;9.80;99.90;;;;;;5059272;28;20087;-87
2022/04/08 12:22:21;;;;;;;2.67;1.15;;;10.00;99.90;;;;;;5028408;28;20048;-83
2022/04/08 12:24:48;;;;;;;0.77;0.70;;;10.00;99.90;;;;;;5089104;28;20478;-81
2022/04/08 12:27:19;;;;;;;3.08;1.38;;;10.00;99.90;;;;;;5072484;28;20059;-85
2022/04/08 12:30:08;;;;;;;1.02;0.65;;;9.70;99.90;;;;;;5043338;28;20043;-84
2022/04/08 12:32:45;;;;;;;2.78;1.00;;;9.40;99.90;;;;;;5075914;28;20087;-86
2022/04/08 12:35:12;;;;;;;2.20;0.90;;;9.10;99.90;;;;;;5038830;28;20066;-82
2022/04/08 12:37:38;;;;;;;3.53;1.33;;;9.00;99.90;;;;;;5053262;28;20072;-80
2022/04/08 12:40:07;;;;;;;3.30;0.95;;;9.00;99.90;;;;;;5061609;28;20153;-86
2022/04/08 12:42:36;;;;;;;1.40;1.00;;;8.90;99.90;;;;;;5050075;28;20056;-80
2022/04/08 12:45:06;;;;;;;1.33;0.95;;;8.90;99.90;;;;;;5054676;28;20048;-86
2022/04/08 12:47:32;;;;;;;1.42;0.70;;;8.60;99.90;;;;;;5054916;28;20568;-82
2022/04/08 12:50:02;;;;;;;1.02;0.90;;;8.10;99.90;;;;;;5037754;28;20050;-83
2022/04/08 12:52:27;;;;;;;1.60;1.02;;;7.70;99.90;;;;;;5053685;28;20105;-85
2022/04/08 12:54:54;;;;;;;0.93;0.90;;;7.40;99.90;;;;;;5034303;28;20486;-83
2022/04/08 12:57:20;;;;;;;0.60;0.60;;;7.30;99.90;;;;;;5034950;28;20366;-82
2022/04/08 12:59:47;;;;;;;1.50;1.17;;;7.30;99.90;;;;;;5058460;28;20037;-80
2022/04/08 13:02:14;;;;;;;0.70;0.70;;;7.40;99.90;;;;;;5048603;28;20370;-81
2022/04/08 13:04:40;;;;;;;3.03;1.20;;;7.80;99.90;;;;;;5035998;28;20037;-82
2022/04/08 13:07:09;;;;;;;;;;;8.20;99.90;;;;;;5054289;28;20462;-81